Corvera, Spain
Current Conditions -  °F | °C
As of 3:30 PM on Monday 26 Jan 2015 (Local Time) from LEXJ Reporting Station
Broken Clouds Broken Clouds  
Wind Chill: 50°   Ceiling: 4100
Heat Index: 50°   Visibility: 6mi
Dew Point: 39°   Wind: 6mph
Humidity: 66%   Direction: 250°WSW
Pressure: 30.5"   Gusts: NA
Location:  43.27°N, 3.95°W
Report Text: LEXJ 261430Z 25005KT 9999 FEW032 BKN041 10/04 Q1033
Loading
Personal Weather Stations






























Interactive Weather Map New forecast layout! Learn more

10-Day Weather Forecast

Advertisements
Track Severe Weather on mobile